sensor_id;sensor_type;location;lat;lon;timestamp;P1;durP1;ratioP1;P2;durP2;ratioP2
24897;SDS011;12957;49.434;8.684;2024-01-30T00:00:24;16.23;;;6.63;;
24897;SDS011;12957;49.434;8.684;2024-01-30T00:02:49;12.43;;;6.63;;
24897;SDS011;12957;49.434;8.684;2024-01-30T00:05:15;11.77;;;7.07;;
24897;SDS011;12957;49.434;8.684;2024-01-30T00:07:40;14.53;;;7.83;;
24897;SDS011;12957;49.434;8.684;2024-01-30T00:10:06;14.20;;;8.13;;
24897;SDS011;12957;49.434;8.684;2024-01-30T00:12:31;11.83;;;7.10;;
24897;SDS011;12957;49.434;8.684;2024-01-30T00:14:57;13.47;;;7.33;;
24897;SDS011;12957;49.434;8.684;2024-01-30T00:17:23;11.70;;;7.20;;
24897;SDS011;12957;49.434;8.684;2024-01-30T00:19:50;12.63;;;7.20;;
24897;SDS011;12957;49.434;8.684;2024-01-30T00:22:15;12.43;;;7.00;;
24897;SDS011;12957;49.434;8.684;2024-01-30T00:24:41;12.10;;;7.00;;
24897;SDS011;12957;49.434;8.684;2024-01-30T00:27:07;10.27;;;6.77;;
24897;SDS011;12957;49.434;8.684;2024-01-30T00:29:33;14.10;;;7.13;;
24897;SDS011;12957;49.434;8.684;2024-01-30T00:31:58;10.53;;;6.93;;
24897;SDS011;12957;49.434;8.684;2024-01-30T00:34:24;14.37;;;7.00;;
24897;SDS011;12957;49.434;8.684;2024-01-30T00:36:50;12.47;;;7.17;;
24897;SDS011;12957;49.434;8.684;2024-01-30T00:39:15;12.60;;;7.00;;
24897;SDS011;12957;49.434;8.684;2024-01-30T00:41:41;14.30;;;7.67;;
24897;SDS011;12957;49.434;8.684;2024-01-30T00:44:06;17.00;;;7.03;;
24897;SDS011;12957;49.434;8.684;2024-01-30T00:46:32;13.37;;;6.87;;
24897;SDS011;12957;49.434;8.684;2024-01-30T00:48:57;13.17;;;7.10;;
24897;SDS011;12957;49.434;8.684;2024-01-30T00:51:23;12.73;;;6.90;;
24897;SDS011;12957;49.434;8.684;2024-01-30T00:53:48;13.33;;;6.57;;
24897;SDS011;12957;49.434;8.684;2024-01-30T00:56:14;12.60;;;7.10;;
24897;SDS011;12957;49.434;8.684;2024-01-30T00:58:43;13.73;;;7.60;;
24897;SDS011;12957;49.434;8.684;2024-01-30T01:01:08;19.20;;;8.07;;
24897;SDS011;12957;49.434;8.684;2024-01-30T01:03:34;15.07;;;7.43;;
24897;SDS011;12957;49.434;8.684;2024-01-30T01:05:59;13.57;;;7.43;;
24897;SDS011;12957;49.434;8.684;2024-01-30T01:08:25;11.50;;;7.07;;
24897;SDS011;12957;49.434;8.684;2024-01-30T01:10:50;12.07;;;7.10;;
24897;SDS011;12957;49.434;8.684;2024-01-30T01:13:16;15.37;;;7.53;;
24897;SDS011;12957;49.434;8.684;2024-01-30T01:15:42;12.67;;;6.90;;
24897;SDS011;12957;49.434;8.684;2024-01-30T01:18:08;14.43;;;7.43;;
24897;SDS011;12957;49.434;8.684;2024-01-30T01:20:33;11.80;;;7.40;;
24897;SDS011;12957;49.434;8.684;2024-01-30T01:22:58;12.17;;;7.17;;
24897;SDS011;12957;49.434;8.684;2024-01-30T01:25:24;13.83;;;7.30;;
24897;SDS011;12957;49.434;8.684;2024-01-30T01:27:49;14.40;;;7.63;;
24897;SDS011;12957;49.434;8.684;2024-01-30T01:30:17;14.93;;;8.27;;
24897;SDS011;12957;49.434;8.684;2024-01-30T01:32:47;14.87;;;8.13;;
24897;SDS011;12957;49.434;8.684;2024-01-30T01:35:20;16.47;;;8.10;;
24897;SDS011;12957;49.434;8.684;2024-01-30T01:37:49;17.80;;;8.40;;
24897;SDS011;12957;49.434;8.684;2024-01-30T01:40:20;10.97;;;7.30;;
24897;SDS011;12957;49.434;8.684;2024-01-30T01:42:47;12.20;;;7.10;;
24897;SDS011;12957;49.434;8.684;2024-01-30T01:45:13;13.10;;;7.80;;
24897;SDS011;12957;49.434;8.684;2024-01-30T01:47:38;18.33;;;7.83;;
24897;SDS011;12957;49.434;8.684;2024-01-30T01:50:04;14.17;;;7.83;;
24897;SDS011;12957;49.434;8.684;2024-01-30T01:52:30;13.87;;;7.90;;
24897;SDS011;12957;49.434;8.684;2024-01-30T01:54:56;12.40;;;7.03;;
24897;SDS011;12957;49.434;8.684;2024-01-30T01:57:21;15.50;;;8.43;;
24897;SDS011;12957;49.434;8.684;2024-01-30T01:59:47;14.43;;;7.27;;
24897;SDS011;12957;49.434;8.684;2024-01-30T02:02:12;20.20;;;8.37;;
24897;SDS011;12957;49.434;8.684;2024-01-30T02:04:40;15.63;;;7.50;;
24897;SDS011;12957;49.434;8.684;2024-01-30T02:07:06;12.23;;;7.60;;
24897;SDS011;12957;49.434;8.684;2024-01-30T02:09:31;13.97;;;7.80;;
24897;SDS011;12957;49.434;8.684;2024-01-30T02:11:57;15.17;;;8.50;;
24897;SDS011;12957;49.434;8.684;2024-01-30T02:14:22;16.53;;;8.37;;
24897;SDS011;12957;49.434;8.684;2024-01-30T02:16:48;17.57;;;8.63;;
24897;SDS011;12957;49.434;8.684;2024-01-30T02:19:13;18.67;;;9.40;;
24897;SDS011;12957;49.434;8.684;2024-01-30T02:21:39;17.10;;;8.70;;
24897;SDS011;12957;49.434;8.684;2024-01-30T02:24:04;16.13;;;8.57;;
24897;SDS011;12957;49.434;8.684;2024-01-30T02:26:30;16.93;;;8.57;;
24897;SDS011;12957;49.434;8.684;2024-01-30T02:28:56;17.53;;;9.43;;
24897;SDS011;12957;49.434;8.684;2024-01-30T02:31:21;14.30;;;8.90;;
24897;SDS011;12957;49.434;8.684;2024-01-30T02:33:47;14.10;;;8.40;;
24897;SDS011;12957;49.434;8.684;2024-01-30T02:36:12;16.60;;;8.60;;
24897;SDS011;12957;49.434;8.684;2024-01-30T02:38:38;16.23;;;8.10;;
24897;SDS011;12957;49.434;8.684;2024-01-30T02:41:03;16.90;;;8.80;;
24897;SDS011;12957;49.434;8.684;2024-01-30T02:43:29;13.90;;;8.37;;
24897;SDS011;12957;49.434;8.684;2024-01-30T02:45:54;17.00;;;8.20;;
24897;SDS011;12957;49.434;8.684;2024-01-30T02:48:20;14.07;;;7.70;;
24897;SDS011;12957;49.434;8.684;2024-01-30T02:50:45;16.43;;;8.53;;
24897;SDS011;12957;49.434;8.684;2024-01-30T02:53:12;15.23;;;7.77;;
24897;SDS011;12957;49.434;8.684;2024-01-30T02:55:37;19.00;;;8.77;;
24897;SDS011;12957;49.434;8.684;2024-01-30T02:58:03;17.07;;;8.37;;
24897;SDS011;12957;49.434;8.684;2024-01-30T03:00:28;16.83;;;8.53;;
24897;SDS011;12957;49.434;8.684;2024-01-30T03:02:54;15.33;;;8.37;;
24897;SDS011;12957;49.434;8.684;2024-01-30T03:05:19;15.17;;;8.20;;
24897;SDS011;12957;49.434;8.684;2024-01-30T03:07:44;11.40;;;7.07;;
24897;SDS011;12957;49.434;8.684;2024-01-30T03:10:10;16.40;;;9.17;;
24897;SDS011;12957;49.434;8.684;2024-01-30T03:12:35;11.77;;;7.73;;
24897;SDS011;12957;49.434;8.684;2024-01-30T03:15:01;17.70;;;8.23;;
24897;SDS011;12957;49.434;8.684;2024-01-30T03:17:26;13.37;;;8.40;;
24897;SDS011;12957;49.434;8.684;2024-01-30T03:19:52;16.03;;;8.07;;
24897;SDS011;12957;49.434;8.684;2024-01-30T03:22:18;16.13;;;8.27;;
24897;SDS011;12957;49.434;8.684;2024-01-30T03:24:43;15.83;;;8.67;;
24897;SDS011;12957;49.434;8.684;2024-01-30T03:27:09;19.37;;;8.43;;
24897;SDS011;12957;49.434;8.684;2024-01-30T03:29:37;13.43;;;8.40;;
24897;SDS011;12957;49.434;8.684;2024-01-30T03:32:03;15.27;;;9.23;;
24897;SDS011;12957;49.434;8.684;2024-01-30T03:34:29;15.13;;;8.27;;
24897;SDS011;12957;49.434;8.684;2024-01-30T03:36:54;12.13;;;7.30;;
24897;SDS011;12957;49.434;8.684;2024-01-30T03:39:20;14.23;;;7.00;;
24897;SDS011;12957;49.434;8.684;2024-01-30T03:41:45;12.23;;;7.07;;
24897;SDS011;12957;49.434;8.684;2024-01-30T03:44:11;11.00;;;6.53;;
24897;SDS011;12957;49.434;8.684;2024-01-30T03:46:36;12.77;;;6.87;;
24897;SDS011;12957;49.434;8.684;2024-01-30T03:49:02;10.07;;;6.47;;
24897;SDS011;12957;49.434;8.684;2024-01-30T03:51:28;15.47;;;7.63;;
24897;SDS011;12957;49.434;8.684;2024-01-30T03:53:53;12.97;;;7.23;;
24897;SDS011;12957;49.434;8.684;2024-01-30T03:56:19;13.40;;;6.83;;
24897;SDS011;12957;49.434;8.684;2024-01-30T03:58:44;15.23;;;7.53;;
24897;SDS011;12957;49.434;8.684;2024-01-30T04:01:13;14.60;;;8.33;;
24897;SDS011;12957;49.434;8.684;2024-01-30T04:03:39;14.50;;;6.70;;
24897;SDS011;12957;49.434;8.684;2024-01-30T04:06:05;13.10;;;7.53;;
24897;SDS011;12957;49.434;8.684;2024-01-30T04:08:31;11.07;;;7.40;;
24897;SDS011;12957;49.434;8.684;2024-01-30T04:10:56;15.20;;;7.37;;
24897;SDS011;12957;49.434;8.684;2024-01-30T04:13:22;12.03;;;6.63;;
24897;SDS011;12957;49.434;8.684;2024-01-30T04:15:47;15.00;;;7.07;;
24897;SDS011;12957;49.434;8.684;2024-01-30T04:18:13;11.30;;;7.17;;
24897;SDS011;12957;49.434;8.684;2024-01-30T04:20:38;14.93;;;8.20;;
24897;SDS011;12957;49.434;8.684;2024-01-30T04:23:04;16.30;;;7.20;;
24897;SDS011;12957;49.434;8.684;2024-01-30T04:25:29;11.37;;;6.77;;
24897;SDS011;12957;49.434;8.684;2024-01-30T04:27:54;9.70;;;7.03;;
24897;SDS011;12957;49.434;8.684;2024-01-30T04:30:20;17.50;;;9.00;;
24897;SDS011;12957;49.434;8.684;2024-01-30T04:32:45;19.67;;;7.93;;
24897;SDS011;12957;49.434;8.684;2024-01-30T04:35:11;16.33;;;8.37;;
24897;SDS011;12957;49.434;8.684;2024-01-30T04:37:36;17.13;;;8.97;;
24897;SDS011;12957;49.434;8.684;2024-01-30T04:40:02;13.20;;;7.40;;
24897;SDS011;12957;49.434;8.684;2024-01-30T04:42:28;11.73;;;6.67;;
24897;SDS011;12957;49.434;8.684;2024-01-30T04:44:53;11.43;;;7.20;;
24897;SDS011;12957;49.434;8.684;2024-01-30T04:47:19;12.73;;;6.60;;
24897;SDS011;12957;49.434;8.684;2024-01-30T04:49:44;9.83;;;6.10;;
24897;SDS011;12957;49.434;8.684;2024-01-30T04:52:09;11.40;;;6.80;;
24897;SDS011;12957;49.434;8.684;2024-01-30T04:54:35;13.33;;;6.70;;
24897;SDS011;12957;49.434;8.684;2024-01-30T04:57:01;9.93;;;6.13;;
24897;SDS011;12957;49.434;8.684;2024-01-30T04:59:27;10.60;;;6.27;;
24897;SDS011;12957;49.434;8.684;2024-01-30T05:01:52;13.30;;;6.30;;
24897;SDS011;12957;49.434;8.684;2024-01-30T05:04:18;11.20;;;6.57;;
24897;SDS011;12957;49.434;8.684;2024-01-30T05:06:43;14.70;;;5.93;;
24897;SDS011;12957;49.434;8.684;2024-01-30T05:09:09;12.20;;;6.67;;
24897;SDS011;12957;49.434;8.684;2024-01-30T05:11:38;9.67;;;6.43;;
24897;SDS011;12957;49.434;8.684;2024-01-30T05:14:06;12.27;;;7.07;;
24897;SDS011;12957;49.434;8.684;2024-01-30T05:16:31;12.43;;;7.33;;
24897;SDS011;12957;49.434;8.684;2024-01-30T05:18:57;13.03;;;7.67;;
24897;SDS011;12957;49.434;8.684;2024-01-30T05:21:23;11.97;;;7.50;;
24897;SDS011;12957;49.434;8.684;2024-01-30T05:23:48;9.60;;;6.67;;
24897;SDS011;12957;49.434;8.684;2024-01-30T05:26:14;8.93;;;6.03;;
24897;SDS011;12957;49.434;8.684;2024-01-30T05:28:39;13.57;;;6.73;;
24897;SDS011;12957;49.434;8.684;2024-01-30T05:31:05;10.40;;;7.10;;
24897;SDS011;12957;49.434;8.684;2024-01-30T05:33:30;12.10;;;7.00;;
24897;SDS011;12957;49.434;8.684;2024-01-30T05:35:56;11.07;;;7.53;;
24897;SDS011;12957;49.434;8.684;2024-01-30T05:38:21;12.87;;;7.70;;
24897;SDS011;12957;49.434;8.684;2024-01-30T05:40:47;9.17;;;6.43;;
24897;SDS011;12957;49.434;8.684;2024-01-30T05:43:12;12.20;;;6.87;;
24897;SDS011;12957;49.434;8.684;2024-01-30T05:45:38;8.23;;;6.20;;
24897;SDS011;12957;49.434;8.684;2024-01-30T05:48:04;11.23;;;7.20;;
24897;SDS011;12957;49.434;8.684;2024-01-30T05:50:30;10.63;;;6.67;;
24897;SDS011;12957;49.434;8.684;2024-01-30T05:52:55;14.37;;;7.47;;
24897;SDS011;12957;49.434;8.684;2024-01-30T05:55:21;10.93;;;6.87;;
24897;SDS011;12957;49.434;8.684;2024-01-30T05:57:46;13.30;;;7.30;;
24897;SDS011;12957;49.434;8.684;2024-01-30T06:00:12;15.13;;;6.60;;
24897;SDS011;12957;49.434;8.684;2024-01-30T06:02:37;13.50;;;7.40;;
24897;SDS011;12957;49.434;8.684;2024-01-30T06:05:03;11.63;;;7.17;;
24897;SDS011;12957;49.434;8.684;2024-01-30T06:07:29;10.63;;;6.93;;
24897;SDS011;12957;49.434;8.684;2024-01-30T06:09:54;9.90;;;6.20;;
24897;SDS011;12957;49.434;8.684;2024-01-30T06:12:20;11.07;;;6.70;;
24897;SDS011;12957;49.434;8.684;2024-01-30T06:14:45;10.40;;;6.37;;
24897;SDS011;12957;49.434;8.684;2024-01-30T06:17:10;14.40;;;7.87;;
24897;SDS011;12957;49.434;8.684;2024-01-30T06:19:37;11.53;;;6.50;;
24897;SDS011;12957;49.434;8.684;2024-01-30T06:22:06;11.63;;;6.67;;
24897;SDS011;12957;49.434;8.684;2024-01-30T06:24:31;11.73;;;6.60;;
24897;SDS011;12957;49.434;8.684;2024-01-30T06:26:57;12.23;;;6.83;;
24897;SDS011;12957;49.434;8.684;2024-01-30T06:29:22;13.03;;;7.30;;
24897;SDS011;12957;49.434;8.684;2024-01-30T06:31:49;11.23;;;6.63;;
24897;SDS011;12957;49.434;8.684;2024-01-30T06:34:15;11.80;;;6.83;;
24897;SDS011;12957;49.434;8.684;2024-01-30T06:36:41;9.53;;;6.80;;
24897;SDS011;12957;49.434;8.684;2024-01-30T06:39:06;10.13;;;6.57;;
24897;SDS011;12957;49.434;8.684;2024-01-30T06:41:32;15.57;;;6.50;;
24897;SDS011;12957;49.434;8.684;2024-01-30T06:43:58;13.73;;;6.57;;
24897;SDS011;12957;49.434;8.684;2024-01-30T06:46:23;13.17;;;6.27;;
24897;SDS011;12957;49.434;8.684;2024-01-30T06:48:49;10.67;;;6.37;;
24897;SDS011;12957;49.434;8.684;2024-01-30T06:51:14;11.70;;;6.90;;
24897;SDS011;12957;49.434;8.684;2024-01-30T06:53:40;11.87;;;6.27;;
24897;SDS011;12957;49.434;8.684;2024-01-30T06:56:05;13.07;;;6.67;;
24897;SDS011;12957;49.434;8.684;2024-01-30T06:58:31;7.87;;;5.93;;
24897;SDS011;12957;49.434;8.684;2024-01-30T07:00:57;9.87;;;6.40;;
24897;SDS011;12957;49.434;8.684;2024-01-30T07:03:22;12.80;;;6.50;;
24897;SDS011;12957;49.434;8.684;2024-01-30T07:05:48;12.53;;;5.73;;
24897;SDS011;12957;49.434;8.684;2024-01-30T07:08:14;12.90;;;6.47;;
24897;SDS011;12957;49.434;8.684;2024-01-30T07:10:42;12.05;;;6.93;;
24897;SDS011;12957;49.434;8.684;2024-01-30T07:13:08;11.70;;;6.50;;
24897;SDS011;12957;49.434;8.684;2024-01-30T07:15:35;9.67;;;5.60;;
24897;SDS011;12957;49.434;8.684;2024-01-30T07:18:01;9.63;;;5.47;;
24897;SDS011;12957;49.434;8.684;2024-01-30T07:20:27;10.87;;;6.10;;
24897;SDS011;12957;49.434;8.684;2024-01-30T07:22:52;9.63;;;6.57;;
24897;SDS011;12957;49.434;8.684;2024-01-30T07:25:18;10.10;;;6.10;;
24897;SDS011;12957;49.434;8.684;2024-01-30T07:27:43;12.43;;;6.50;;
24897;SDS011;12957;49.434;8.684;2024-01-30T07:30:09;9.80;;;5.87;;
24897;SDS011;12957;49.434;8.684;2024-01-30T07:32:34;14.93;;;6.47;;
24897;SDS011;12957;49.434;8.684;2024-01-30T07:35:00;11.47;;;6.43;;
24897;SDS011;12957;49.434;8.684;2024-01-30T07:37:25;11.63;;;5.57;;
24897;SDS011;12957;49.434;8.684;2024-01-30T07:39:51;11.47;;;6.73;;
24897;SDS011;12957;49.434;8.684;2024-01-30T07:42:16;10.37;;;6.00;;
24897;SDS011;12957;49.434;8.684;2024-01-30T07:44:42;15.27;;;6.70;;
24897;SDS011;12957;49.434;8.684;2024-01-30T07:47:08;12.80;;;6.80;;
24897;SDS011;12957;49.434;8.684;2024-01-30T07:49:34;10.40;;;6.67;;
24897;SDS011;12957;49.434;8.684;2024-01-30T07:51:59;9.57;;;6.17;;
24897;SDS011;12957;49.434;8.684;2024-01-30T07:54:25;10.83;;;6.73;;
24897;SDS011;12957;49.434;8.684;2024-01-30T07:56:50;13.73;;;6.27;;
24897;SDS011;12957;49.434;8.684;2024-01-30T07:59:16;10.20;;;6.10;;
24897;SDS011;12957;49.434;8.684;2024-01-30T08:01:41;9.90;;;6.23;;
24897;SDS011;12957;49.434;8.684;2024-01-30T08:04:07;12.47;;;6.50;;
24897;SDS011;12957;49.434;8.684;2024-01-30T08:06:32;12.37;;;6.60;;
24897;SDS011;12957;49.434;8.684;2024-01-30T08:08:58;9.30;;;6.57;;
24897;SDS011;12957;49.434;8.684;2024-01-30T08:11:24;14.33;;;7.47;;
24897;SDS011;12957;49.434;8.684;2024-01-30T08:13:52;12.53;;;7.13;;
24897;SDS011;12957;49.434;8.684;2024-01-30T08:16:18;21.77;;;7.30;;
24897;SDS011;12957;49.434;8.684;2024-01-30T08:18:43;12.20;;;6.77;;
24897;SDS011;12957;49.434;8.684;2024-01-30T08:21:09;8.87;;;6.33;;
24897;SDS011;12957;49.434;8.684;2024-01-30T08:23:34;13.98;;;6.80;;
24897;SDS011;12957;49.434;8.684;2024-01-30T08:26:00;9.85;;;6.65;;
24897;SDS011;12957;49.434;8.684;2024-01-30T08:28:25;8.85;;;5.95;;
24897;SDS011;12957;49.434;8.684;2024-01-30T08:30:51;12.10;;;6.80;;
24897;SDS011;12957;49.434;8.684;2024-01-30T08:33:17;8.18;;;6.07;;
24897;SDS011;12957;49.434;8.684;2024-01-30T08:35:42;8.18;;;5.70;;
24897;SDS011;12957;49.434;8.684;2024-01-30T08:38:08;11.33;;;7.20;;
24897;SDS011;12957;49.434;8.684;2024-01-30T08:40:33;10.53;;;6.90;;
24897;SDS011;12957;49.434;8.684;2024-01-30T08:42:59;12.13;;;6.25;;
24897;SDS011;12957;49.434;8.684;2024-01-30T08:45:24;12.23;;;6.15;;
24897;SDS011;12957;49.434;8.684;2024-01-30T08:47:50;11.50;;;6.28;;
24897;SDS011;12957;49.434;8.684;2024-01-30T08:50:15;12.48;;;6.18;;
24897;SDS011;12957;49.434;8.684;2024-01-30T08:52:41;9.98;;;6.53;;
24897;SDS011;12957;49.434;8.684;2024-01-30T08:55:06;9.45;;;6.07;;
24897;SDS011;12957;49.434;8.684;2024-01-30T08:57:32;10.95;;;6.50;;
24897;SDS011;12957;49.434;8.684;2024-01-30T08:59:58;10.13;;;6.05;;
24897;SDS011;12957;49.434;8.684;2024-01-30T09:02:23;8.57;;;5.97;;
24897;SDS011;12957;49.434;8.684;2024-01-30T09:04:48;8.88;;;5.80;;
24897;SDS011;12957;49.434;8.684;2024-01-30T09:07:14;10.30;;;6.30;;
24897;SDS011;12957;49.434;8.684;2024-01-30T09:09:41;12.67;;;6.07;;
24897;SDS011;12957;49.434;8.684;2024-01-30T09:12:07;11.85;;;6.55;;
24897;SDS011;12957;49.434;8.684;2024-01-30T09:14:34;11.13;;;7.25;;
24897;SDS011;12957;49.434;8.684;2024-01-30T09:17:00;11.70;;;7.22;;
24897;SDS011;12957;49.434;8.684;2024-01-30T09:19:26;12.27;;;6.90;;
24897;SDS011;12957;49.434;8.684;2024-01-30T09:21:51;10.05;;;6.50;;
24897;SDS011;12957;49.434;8.684;2024-01-30T09:24:17;8.82;;;6.65;;
24897;SDS011;12957;49.434;8.684;2024-01-30T09:26:42;9.35;;;6.68;;
24897;SDS011;12957;49.434;8.684;2024-01-30T09:29:08;9.35;;;6.10;;
24897;SDS011;12957;49.434;8.684;2024-01-30T09:31:33;11.68;;;6.80;;
24897;SDS011;12957;49.434;8.684;2024-01-30T09:33:59;12.90;;;6.38;;
24897;SDS011;12957;49.434;8.684;2024-01-30T09:36:24;9.07;;;6.22;;
24897;SDS011;12957;49.434;8.684;2024-01-30T09:38:50;11.73;;;6.50;;
24897;SDS011;12957;49.434;8.684;2024-01-30T09:41:15;8.52;;;6.13;;
24897;SDS011;12957;49.434;8.684;2024-01-30T09:43:41;11.98;;;6.10;;
24897;SDS011;12957;49.434;8.684;2024-01-30T09:46:08;9.98;;;6.50;;
24897;SDS011;12957;49.434;8.684;2024-01-30T09:48:38;8.57;;;6.50;;
24897;SDS011;12957;49.434;8.684;2024-01-30T09:51:04;11.88;;;6.40;;
24897;SDS011;12957;49.434;8.684;2024-01-30T09:53:30;11.68;;;6.63;;
24897;SDS011;12957;49.434;8.684;2024-01-30T09:55:56;11.77;;;7.43;;
24897;SDS011;12957;49.434;8.684;2024-01-30T09:58:22;11.07;;;6.25;;
24897;SDS011;12957;49.434;8.684;2024-01-30T10:00:48;9.20;;;5.95;;
24897;SDS011;12957;49.434;8.684;2024-01-30T10:03:13;10.88;;;6.65;;
24897;SDS011;12957;49.434;8.684;2024-01-30T10:05:40;8.07;;;5.90;;
24897;SDS011;12957;49.434;8.684;2024-01-30T10:08:06;11.93;;;6.70;;
24897;SDS011;12957;49.434;8.684;2024-01-30T10:10:35;10.63;;;6.75;;
24897;SDS011;12957;49.434;8.684;2024-01-30T10:13:00;10.50;;;6.63;;
24897;SDS011;12957;49.434;8.684;2024-01-30T10:15:27;11.55;;;6.53;;
24897;SDS011;12957;49.434;8.684;2024-01-30T10:17:53;10.27;;;6.30;;
24897;SDS011;12957;49.434;8.684;2024-01-30T10:20:18;10.45;;;6.18;;
24897;SDS011;12957;49.434;8.684;2024-01-30T10:22:44;11.63;;;6.60;;
24897;SDS011;12957;49.434;8.684;2024-01-30T10:25:10;10.02;;;6.65;;
24897;SDS011;12957;49.434;8.684;2024-01-30T10:27:36;10.60;;;6.30;;
24897;SDS011;12957;49.434;8.684;2024-01-30T10:30:02;9.32;;;5.95;;
24897;SDS011;12957;49.434;8.684;2024-01-30T10:32:29;11.02;;;6.65;;
24897;SDS011;12957;49.434;8.684;2024-01-30T10:34:54;9.77;;;6.10;;
24897;SDS011;12957;49.434;8.684;2024-01-30T10:37:21;10.05;;;6.30;;
24897;SDS011;12957;49.434;8.684;2024-01-30T10:39:50;11.60;;;6.72;;
24897;SDS011;12957;49.434;8.684;2024-01-30T10:42:18;9.38;;;5.93;;
24897;SDS011;12957;49.434;8.684;2024-01-30T10:44:47;8.45;;;5.43;;
24897;SDS011;12957;49.434;8.684;2024-01-30T10:47:18;7.43;;;5.35;;
24897;SDS011;12957;49.434;8.684;2024-01-30T10:49:48;9.05;;;6.03;;
24897;SDS011;12957;49.434;8.684;2024-01-30T10:52:14;14.27;;;6.75;;
24897;SDS011;12957;49.434;8.684;2024-01-30T10:54:40;14.98;;;6.65;;
24897;SDS011;12957;49.434;8.684;2024-01-30T10:57:08;14.13;;;6.32;;
24897;SDS011;12957;49.434;8.684;2024-01-30T10:59:35;12.68;;;5.50;;
24897;SDS011;12957;49.434;8.684;2024-01-30T11:02:01;10.32;;;6.18;;
24897;SDS011;12957;49.434;8.684;2024-01-30T11:04:27;8.77;;;6.47;;
24897;SDS011;12957;49.434;8.684;2024-01-30T11:06:52;9.27;;;6.03;;
24897;SDS011;12957;49.434;8.684;2024-01-30T11:09:19;17.15;;;6.53;;
24897;SDS011;12957;49.434;8.684;2024-01-30T11:12:02;8.68;;;6.07;;
24897;SDS011;12957;49.434;8.684;2024-01-30T11:14:31;11.20;;;6.38;;
24897;SDS011;12957;49.434;8.684;2024-01-30T11:16:57;12.27;;;6.15;;
24897;SDS011;12957;49.434;8.684;2024-01-30T11:19:27;14.88;;;6.85;;
24897;SDS011;12957;49.434;8.684;2024-01-30T11:21:55;12.10;;;6.47;;
24897;SDS011;12957;49.434;8.684;2024-01-30T11:24:21;10.10;;;6.03;;
24897;SDS011;12957;49.434;8.684;2024-01-30T11:26:57;10.57;;;6.13;;
24897;SDS011;12957;49.434;8.684;2024-01-30T11:29:27;8.40;;;5.95;;
24897;SDS011;12957;49.434;8.684;2024-01-30T11:31:56;10.23;;;6.38;;
24897;SDS011;12957;49.434;8.684;2024-01-30T11:34:23;14.10;;;7.15;;
24897;SDS011;12957;49.434;8.684;2024-01-30T11:36:52;12.63;;;6.78;;
24897;SDS011;12957;49.434;8.684;2024-01-30T11:39:24;12.88;;;7.13;;
24897;SDS011;12957;49.434;8.684;2024-01-30T11:41:54;9.85;;;6.88;;
24897;SDS011;12957;49.434;8.684;2024-01-30T11:44:20;10.73;;;7.13;;
24897;SDS011;12957;49.434;8.684;2024-01-30T11:46:49;9.98;;;6.70;;
24897;SDS011;12957;49.434;8.684;2024-01-30T11:49:15;11.75;;;7.38;;
24897;SDS011;12957;49.434;8.684;2024-01-30T11:51:41;10.73;;;6.78;;
24897;SDS011;12957;49.434;8.684;2024-01-30T11:54:07;11.90;;;7.18;;
24897;SDS011;12957;49.434;8.684;2024-01-30T11:56:33;10.68;;;7.30;;
24897;SDS011;12957;49.434;8.684;2024-01-30T11:58:58;9.82;;;6.55;;
24897;SDS011;12957;49.434;8.684;2024-01-30T12:01:25;12.90;;;7.70;;
24897;SDS011;12957;49.434;8.684;2024-01-30T12:03:51;13.73;;;7.68;;
24897;SDS011;12957;49.434;8.684;2024-01-30T12:06:17;15.45;;;7.70;;
24897;SDS011;12957;49.434;8.684;2024-01-30T12:08:42;13.50;;;7.32;;
24897;SDS011;12957;49.434;8.684;2024-01-30T12:11:09;13.18;;;7.93;;
24897;SDS011;12957;49.434;8.684;2024-01-30T12:13:35;12.93;;;7.28;;
24897;SDS011;12957;49.434;8.684;2024-01-30T12:16:00;9.63;;;6.53;;
24897;SDS011;12957;49.434;8.684;2024-01-30T12:18:26;12.10;;;7.35;;
24897;SDS011;12957;49.434;8.684;2024-01-30T12:20:58;13.23;;;7.32;;
24897;SDS011;12957;49.434;8.684;2024-01-30T12:23:25;13.70;;;7.38;;
24897;SDS011;12957;49.434;8.684;2024-01-30T12:25:52;11.15;;;7.30;;
24897;SDS011;12957;49.434;8.684;2024-01-30T12:28:17;11.00;;;7.07;;
24897;SDS011;12957;49.434;8.684;2024-01-30T12:30:43;11.13;;;6.97;;
24897;SDS011;12957;49.434;8.684;2024-01-30T12:33:08;10.70;;;6.90;;
24897;SDS011;12957;49.434;8.684;2024-01-30T12:35:35;10.13;;;6.82;;
24897;SDS011;12957;49.434;8.684;2024-01-30T12:38:00;9.65;;;6.32;;
24897;SDS011;12957;49.434;8.684;2024-01-30T12:40:26;8.95;;;6.68;;
24897;SDS011;12957;49.434;8.684;2024-01-30T12:42:52;12.95;;;6.78;;
24897;SDS011;12957;49.434;8.684;2024-01-30T12:45:18;11.73;;;7.15;;
24897;SDS011;12957;49.434;8.684;2024-01-30T12:47:47;13.40;;;6.97;;
24897;SDS011;12957;49.434;8.684;2024-01-30T12:50:13;12.07;;;7.22;;
24897;SDS011;12957;49.434;8.684;2024-01-30T12:52:40;11.88;;;7.05;;
24897;SDS011;12957;49.434;8.684;2024-01-30T12:55:06;11.07;;;7.00;;
24897;SDS011;12957;49.434;8.684;2024-01-30T12:57:32;18.90;;;7.78;;
24897;SDS011;12957;49.434;8.684;2024-01-30T12:59:57;9.95;;;6.82;;
24897;SDS011;12957;49.434;8.684;2024-01-30T13:02:23;10.40;;;7.22;;
24897;SDS011;12957;49.434;8.684;2024-01-30T13:04:49;21.75;;;6.95;;
24897;SDS011;12957;49.434;8.684;2024-01-30T13:07:14;15.63;;;7.60;;
24897;SDS011;12957;49.434;8.684;2024-01-30T13:09:40;10.80;;;6.78;;
24897;SDS011;12957;49.434;8.684;2024-01-30T13:12:05;10.50;;;6.55;;
24897;SDS011;12957;49.434;8.684;2024-01-30T13:14:32;10.93;;;6.45;;
24897;SDS011;12957;49.434;8.684;2024-01-30T13:16:57;14.35;;;6.72;;
24897;SDS011;12957;49.434;8.684;2024-01-30T13:19:23;11.35;;;6.82;;
24897;SDS011;12957;49.434;8.684;2024-01-30T13:21:48;12.07;;;7.22;;
24897;SDS011;12957;49.434;8.684;2024-01-30T13:24:14;9.13;;;6.55;;
24897;SDS011;12957;49.434;8.684;2024-01-30T13:26:40;9.55;;;6.93;;
24897;SDS011;12957;49.434;8.684;2024-01-30T13:29:05;8.50;;;6.35;;
24897;SDS011;12957;49.434;8.684;2024-01-30T13:31:31;13.40;;;7.32;;
24897;SDS011;12957;49.434;8.684;2024-01-30T13:33:56;12.43;;;7.00;;
24897;SDS011;12957;49.434;8.684;2024-01-30T13:36:22;15.80;;;7.53;;
24897;SDS011;12957;49.434;8.684;2024-01-30T13:38:47;15.85;;;7.07;;
24897;SDS011;12957;49.434;8.684;2024-01-30T13:41:13;12.98;;;7.95;;
24897;SDS011;12957;49.434;8.684;2024-01-30T13:43:39;18.15;;;7.95;;
24897;SDS011;12957;49.434;8.684;2024-01-30T13:46:04;14.75;;;7.80;;
24897;SDS011;12957;49.434;8.684;2024-01-30T13:48:31;10.95;;;7.22;;
24897;SDS011;12957;49.434;8.684;2024-01-30T13:50:56;11.13;;;6.90;;
24897;SDS011;12957;49.434;8.684;2024-01-30T13:53:22;9.98;;;7.07;;
24897;SDS011;12957;49.434;8.684;2024-01-30T13:55:47;12.30;;;7.10;;
24897;SDS011;12957;49.434;8.684;2024-01-30T13:58:13;11.10;;;6.97;;
24897;SDS011;12957;49.434;8.684;2024-01-30T14:00:38;9.35;;;6.53;;
24897;SDS011;12957;49.434;8.684;2024-01-30T14:03:04;13.98;;;7.13;;
24897;SDS011;12957;49.434;8.684;2024-01-30T14:05:29;15.20;;;8.40;;
24897;SDS011;12957;49.434;8.684;2024-01-30T14:07:55;12.65;;;8.77;;
24897;SDS011;12957;49.434;8.684;2024-01-30T14:10:21;10.98;;;7.28;;
24897;SDS011;12957;49.434;8.684;2024-01-30T14:12:47;15.93;;;8.25;;
24897;SDS011;12957;49.434;8.684;2024-01-30T14:15:15;12.98;;;8.43;;
24897;SDS011;12957;49.434;8.684;2024-01-30T14:17:44;12.00;;;7.63;;
24897;SDS011;12957;49.434;8.684;2024-01-30T14:20:10;11.73;;;7.47;;
24897;SDS011;12957;49.434;8.684;2024-01-30T14:22:36;14.00;;;7.68;;
24897;SDS011;12957;49.434;8.684;2024-01-30T14:25:01;15.05;;;7.53;;
24897;SDS011;12957;49.434;8.684;2024-01-30T14:27:30;11.73;;;6.97;;